Time;durP1;ratioP1;P1;durP2;ratioP2;P2;SDS_P1;SDS_P2;PMS_P1;PMS_P2;Temp;Humidity;BMP_temperature;BMP_pressure;BME280_temperature;BME280_humidity;BME280_pressure;Samples;Min_cycle;Max_cycle;Signal;HPM_P1;HPM_P2
2022/04/20 00:00:47;;;;;;;7.22;3.25;;;11.30;92.50;;;;;;5032968;28;20400;-76
2022/04/20 00:03:13;;;;;;;4.60;2.90;;;11.30;92.50;;;;;;5032969;28;20046;-76
2022/04/20 00:05:39;;;;;;;3.50;2.38;;;11.30;92.30;;;;;;5032953;28;20048;-75
2022/04/20 00:08:05;;;;;;;7.13;3.20;;;11.30;92.60;;;;;;5032984;28;20184;-75
2022/04/20 00:10:32;;;;;;;6.30;2.92;;;11.40;92.50;;;;;;5032864;28;20053;-76
2022/04/20 00:12:58;;;;;;;6.97;3.05;;;11.40;92.50;;;;;;5032833;28;20473;-75
2022/04/20 00:15:23;;;;;;;7.07;2.90;;;11.50;92.30;;;;;;5016121;28;20468;-76
2022/04/20 00:17:50;;;;;;;4.75;2.70;;;11.40;92.40;;;;;;5032379;28;20052;-76
2022/04/20 00:20:16;;;;;;;5.45;3.03;;;11.40;92.40;;;;;;5016408;28;20510;-76
2022/04/20 00:22:42;;;;;;;6.55;3.55;;;11.40;92.40;;;;;;5032569;28;20045;-75
2022/04/20 00:25:08;;;;;;;4.40;2.78;;;11.50;92.20;;;;;;5016182;28;20460;-75
2022/04/20 00:27:35;;;;;;;5.85;3.03;;;11.40;92.40;;;;;;5032749;28;20408;-76
2022/04/20 00:30:07;;;;;;;5.85;2.90;;;11.30;92.30;;;;;;5032626;28;20068;-75
2022/04/20 00:32:33;;;;;;;5.53;3.08;;;11.30;92.50;;;;;;5032639;28;20092;-76
2022/04/20 00:34:59;;;;;;;5.97;2.70;;;11.10;92.50;;;;;;5032684;28;20045;-76
2022/04/20 00:37:24;;;;;;;6.28;2.67;;;11.10;92.40;;;;;;5032665;28;20056;-76
2022/04/20 00:39:50;;;;;;;6.60;2.70;;;11.20;92.60;;;;;;5032607;28;20045;-75
2022/04/20 00:42:16;;;;;;;4.20;2.58;;;11.20;92.40;;;;;;5032543;28;20437;-75
2022/04/20 00:44:42;;;;;;;7.05;2.78;;;11.00;92.70;;;;;;5032536;28;20045;-76
2022/04/20 00:47:10;;;;;;;7.45;3.00;;;10.90;92.50;;;;;;5015702;28;20098;-76
2022/04/20 00:49:36;;;;;;;4.93;3.00;;;10.90;92.60;;;;;;5034037;28;20045;-76
2022/04/20 00:52:04;;;;;;;6.03;2.58;;;10.90;92.70;;;;;;5036496;28;20480;-76
2022/04/20 00:54:30;;;;;;;6.32;2.92;;;11.00;92.80;;;;;;5036631;28;20041;-76
2022/04/20 00:56:55;;;;;;;5.13;3.00;;;11.10;92.70;;;;;;5036585;28;20053;-76
2022/04/20 00:59:27;;;;;;;4.63;2.90;;;11.20;92.70;;;;;;5036470;28;20049;-76
2022/04/20 01:01:53;;;;;;;7.20;3.08;;;11.10;92.70;;;;;;5036265;28;20045;-76
2022/04/20 01:04:19;;;;;;;6.82;3.58;;;11.20;92.50;;;;;;5036377;28;20130;-76
2022/04/20 01:06:50;;;;;;;8.05;3.42;;;11.00;92.60;;;;;;5036255;28;20103;-75
2022/04/20 01:09:17;;;;;;;6.90;3.13;;;10.90;92.80;;;;;;5036284;28;20135;-75
2022/04/20 01:11:43;;;;;;;6.47;3.00;;;10.90;92.80;;;;;;5036209;28;20053;-76
2022/04/20 01:14:09;;;;;;;5.97;3.10;;;10.70;92.80;;;;;;5035594;28;20061;-76
2022/04/20 01:16:36;;;;;;;7.00;3.20;;;10.70;93.10;;;;;;5035427;28;20129;-76
2022/04/20 01:19:02;;;;;;;7.85;3.35;;;10.80;93.20;;;;;;5036063;28;20034;-76
2022/04/20 01:21:29;;;;;;;6.55;3.10;;;10.80;93.10;;;;;;5035570;28;20132;-75
2022/04/20 01:23:54;;;;;;;5.20;3.10;;;10.90;92.90;;;;;;5036118;28;20104;-75
2022/04/20 01:26:20;;;;;;;5.15;2.88;;;10.90;93.10;;;;;;5035918;28;20053;-76
2022/04/20 01:28:47;;;;;;;5.65;3.10;;;10.70;93.10;;;;;;5003065;28;20400;-76
2022/04/20 01:31:17;;;;;;;6.35;3.40;;;10.60;93.20;;;;;;5035628;28;20080;-76
2022/04/20 01:33:44;;;;;;;6.25;3.13;;;10.50;93.30;;;;;;5035749;28;20053;-76
2022/04/20 01:36:11;;;;;;;6.53;3.47;;;10.50;93.40;;;;;;5035705;28;20089;-76
2022/04/20 01:38:39;;;;;;;5.50;3.22;;;10.50;93.40;;;;;;5035606;28;20041;-76
2022/04/20 01:41:06;;;;;;;7.72;3.30;;;10.50;93.30;;;;;;5035596;28;20436;-76
2022/04/20 01:43:32;;;;;;;6.65;3.42;;;10.40;93.50;;;;;;5035558;28;20049;-76
2022/04/20 01:45:58;;;;;;;5.38;3.22;;;10.30;93.70;;;;;;5035557;28;20049;-75
2022/04/20 01:48:23;;;;;;;4.75;3.08;;;10.30;93.50;;;;;;5035157;28;20046;-76
2022/04/20 01:53:34;;;;;;;6.32;2.83;;;10.40;93.50;;;;;;5035479;28;20163;-75
2022/04/20 01:56:00;;;;;;;6.40;3.25;;;10.30;93.60;;;;;;5035323;28;20162;-75
2022/04/20 01:58:29;;;;;;;5.53;3.28;;;10.30;93.50;;;;;;5035020;28;20110;-76
2022/04/20 02:00:54;;;;;;;7.40;3.90;;;10.10;93.30;;;;;;5034853;28;20476;-75
2022/04/20 02:03:20;;;;;;;4.68;2.92;;;9.80;93.60;;;;;;5035044;28;20179;-75
2022/04/20 02:05:46;;;;;;;8.05;3.30;;;9.80;93.60;;;;;;5018661;28;20132;-76
2022/04/20 02:08:12;;;;;;;8.70;4.05;;;9.90;93.40;;;;;;5035105;28;20049;-76
2022/04/20 02:10:37;;;;;;;7.70;3.33;;;9.90;93.40;;;;;;5035110;28;20529;-76
2022/04/20 02:13:03;;;;;;;7.55;3.22;;;9.90;93.50;;;;;;5034972;28;20092;-76
2022/04/20 02:15:29;;;;;;;5.30;3.25;;;9.80;93.40;;;;;;5018296;28;20099;-76
2022/04/20 02:17:55;;;;;;;7.30;3.30;;;9.80;93.70;;;;;;5034366;28;20071;-76
2022/04/20 02:20:21;;;;;;;8.02;3.13;;;9.80;93.60;;;;;;5034614;28;20048;-75
2022/04/20 02:22:47;;;;;;;7.63;3.30;;;9.80;93.80;;;;;;5034540;28;20049;-76
2022/04/20 02:25:12;;;;;;;6.53;3.70;;;9.80;93.60;;;;;;5034845;28;20052;-75
2022/04/20 02:27:38;;;;;;;5.35;3.00;;;9.80;93.70;;;;;;5034754;28;20120;-76
2022/04/20 02:30:05;;;;;;;5.70;3.10;;;9.80;93.80;;;;;;5034833;28;20057;-76
2022/04/20 02:32:31;;;;;;;6.53;3.40;;;9.80;93.80;;;;;;5034610;28;20049;-75
2022/04/20 02:34:56;;;;;;;7.10;3.33;;;9.70;93.80;;;;;;5034650;28;20503;-75
2022/04/20 02:37:23;;;;;;;8.77;3.55;;;9.60;93.80;;;;;;5034654;28;20084;-76
2022/04/20 02:39:49;;;;;;;7.47;3.80;;;9.50;94.00;;;;;;5034613;28;20401;-76
2022/04/20 02:42:16;;;;;;;7.07;3.75;;;9.50;94.00;;;;;;5034317;28;20146;-75
2022/04/20 02:44:42;;;;;;;7.85;3.65;;;9.50;94.00;;;;;;5034501;28;20049;-75
2022/04/20 02:47:08;;;;;;;5.18;3.60;;;9.50;94.10;;;;;;5034008;28;20049;-75
2022/04/20 02:49:35;;;;;;;7.57;3.88;;;9.60;94.00;;;;;;5034410;28;20476;-76
2022/04/20 02:52:01;;;;;;;7.85;3.30;;;9.60;93.80;;;;;;5017837;28;20045;-77
2022/04/20 02:54:27;;;;;;;5.78;3.25;;;9.50;94.10;;;;;;5017886;28;20045;-76
2022/04/20 02:56:53;;;;;;;7.32;4.00;;;9.50;94.00;;;;;;5034422;28;20395;-76
2022/04/20 02:59:19;;;;;;;8.07;3.28;;;9.50;94.10;;;;;;5034644;28;20053;-76
2022/04/20 03:01:44;;;;;;;7.25;3.47;;;9.50;93.90;;;;;;5033996;28;20072;-76
2022/04/20 03:04:11;;;;;;;6.93;3.47;;;9.50;94.00;;;;;;5034160;28;20045;-75
2022/04/20 03:06:37;;;;;;;7.38;3.47;;;9.60;93.90;;;;;;5033872;28;20041;-75
2022/04/20 03:09:03;;;;;;;6.53;3.38;;;9.60;94.10;;;;;;5017544;28;20140;-76
2022/04/20 03:11:29;;;;;;;6.53;3.75;;;9.70;93.90;;;;;;5034370;28;20052;-76
2022/04/20 03:13:56;;;;;;;4.65;3.20;;;9.90;93.90;;;;;;5033030;28;20057;-76
2022/04/20 03:16:22;;;;;;;6.15;3.38;;;9.90;93.80;;;;;;5033889;28;20054;-76
2022/04/20 03:18:48;;;;;;;7.40;3.10;;;10.00;93.70;;;;;;5033478;28;20048;-76
2022/04/20 03:21:14;;;;;;;5.10;3.50;;;10.00;93.80;;;;;;5033344;28;20053;-75
2022/04/20 03:23:40;;;;;;;8.93;3.17;;;9.90;93.80;;;;;;5033678;28;20128;-75
2022/04/20 03:26:06;;;;;;;7.35;3.83;;;9.90;93.80;;;;;;5017212;28;20041;-76
2022/04/20 03:28:32;;;;;;;7.20;3.67;;;9.90;93.80;;;;;;5033568;28;20523;-76
2022/04/20 03:30:59;;;;;;;6.43;3.72;;;10.00;94.10;;;;;;5033634;28;20049;-76
2022/04/20 03:33:24;;;;;;;8.20;3.25;;;10.10;94.00;;;;;;5033198;28;20056;-76
2022/04/20 03:35:50;;;;;;;6.80;3.35;;;10.00;94.00;;;;;;5033393;28;20045;-76
2022/04/20 03:38:16;;;;;;;5.15;2.88;;;9.80;94.00;;;;;;5033594;28;20052;-76
2022/04/20 03:40:42;;;;;;;6.57;3.60;;;9.80;94.20;;;;;;5033380;28;20388;-75
2022/04/20 03:43:07;;;;;;;5.30;3.00;;;9.60;94.10;;;;;;5033069;28;20132;-75
2022/04/20 03:45:33;;;;;;;6.18;3.40;;;9.50;94.30;;;;;;5033414;28;20096;-75
2022/04/20 03:47:59;;;;;;;8.73;3.42;;;9.40;94.30;;;;;;5000249;28;20085;-76
2022/04/20 03:50:25;;;;;;;6.75;3.20;;;9.30;94.40;;;;;;5032879;28;20381;-76
2022/04/20 03:52:51;;;;;;;5.32;3.45;;;9.40;94.20;;;;;;5033150;28;20041;-75
2022/04/20 03:55:16;;;;;;;7.43;3.47;;;9.30;94.30;;;;;;5033159;28;20053;-76
2022/04/20 03:57:42;;;;;;;6.40;3.33;;;9.40;94.30;;;;;;5000314;28;20049;-76
2022/04/20 04:00:08;;;;;;;7.05;3.45;;;9.50;94.30;;;;;;5016691;28;20053;-76
2022/04/20 04:02:34;;;;;;;8.90;3.60;;;9.60;94.40;;;;;;5032784;28;20049;-76
2022/04/20 04:05:00;;;;;;;6.05;3.30;;;9.60;94.40;;;;;;5033081;28;20045;-76
2022/04/20 04:07:25;;;;;;;6.95;3.58;;;9.70;94.50;;;;;;5032940;28;20041;-76
2022/04/20 04:09:51;;;;;;;7.15;3.30;;;9.70;94.30;;;;;;5032219;28;20053;-76
2022/04/20 04:12:22;;;;;;;5.72;3.50;;;9.70;94.50;;;;;;5031251;28;20045;-76
2022/04/20 04:14:53;;;;;;;6.88;3.30;;;9.80;94.50;;;;;;5032588;28;20065;-76
2022/04/20 04:17:18;;;;;;;7.45;3.40;;;9.70;94.50;;;;;;5032622;28;20131;-76
2022/04/20 04:19:44;;;;;;;8.77;4.20;;;9.70;94.60;;;;;;5032702;28;20093;-76
2022/04/20 04:22:10;;;;;;;8.77;3.42;;;9.70;94.60;;;;;;5032817;28;20091;-75
2022/04/20 04:24:35;;;;;;;5.38;3.35;;;9.50;94.70;;;;;;5032425;28;20042;-75
2022/04/20 04:27:03;;;;;;;8.15;3.30;;;9.30;94.80;;;;;;5016306;28;20128;-76
2022/04/20 04:29:31;;;;;;;7.25;3.95;;;9.30;95.00;;;;;;5032603;28;20146;-76
2022/04/20 04:31:57;;;;;;;7.38;3.58;;;9.30;95.10;;;;;;5032612;28;20408;-76
2022/04/20 04:34:22;;;;;;;7.00;3.67;;;9.50;95.00;;;;;;5016259;28;20045;-76
2022/04/20 04:36:50;;;;;;;6.40;3.95;;;9.60;95.10;;;;;;5016254;28;20046;-76
2022/04/20 04:39:18;;;;;;;9.25;4.20;;;9.50;95.10;;;;;;5032359;28;20045;-75
2022/04/20 04:41:46;;;;;;;7.28;3.83;;;9.60;95.10;;;;;;5032382;28;20049;-75
2022/04/20 04:44:12;;;;;;;4.78;3.10;;;9.70;95.20;;;;;;5032793;28;20373;-75
2022/04/20 04:49:21;;;;;;;6.47;3.88;;;9.50;95.20;;;;;;5032675;28;20061;-76
2022/04/20 04:51:48;;;;;;;7.57;3.40;;;9.50;95.30;;;;;;5032261;28;20400;-75
2022/04/20 04:54:14;;;;;;;6.15;3.33;;;9.50;95.30;;;;;;5032477;28;20071;-75
2022/04/20 04:56:40;;;;;;;7.55;3.63;;;9.50;95.40;;;;;;5032625;28;20127;-76
2022/04/20 04:59:06;;;;;;;6.28;3.55;;;9.60;95.40;;;;;;4999622;28;20056;-76
2022/04/20 05:01:31;;;;;;;7.72;3.97;;;9.60;95.40;;;;;;5032277;28;20048;-75
2022/04/20 05:03:57;;;;;;;7.00;3.20;;;9.60;95.30;;;;;;5032370;28;20049;-76
2022/04/20 05:06:23;;;;;;;6.05;3.80;;;9.70;95.40;;;;;;5032361;28;20502;-76
2022/04/20 05:08:48;;;;;;;8.57;3.63;;;9.70;95.10;;;;;;5032654;28;20050;-75
2022/04/20 05:11:14;;;;;;;8.00;3.60;;;9.60;95.40;;;;;;5032278;28;20184;-75
2022/04/20 05:13:40;;;;;;;5.63;3.47;;;9.70;95.30;;;;;;5032172;28;20069;-76
2022/04/20 05:16:08;;;;;;;7.05;4.00;;;9.60;95.20;;;;;;5032238;28;20485;-77
2022/04/20 05:18:34;;;;;;;8.35;3.80;;;9.70;95.40;;;;;;5031885;28;20064;-76
2022/04/20 05:21:00;;;;;;;5.55;3.67;;;9.50;95.40;;;;;;5032085;28;20041;-75
2022/04/20 05:23:26;;;;;;;6.68;3.70;;;9.60;95.40;;;;;;5032138;28;20038;-75
2022/04/20 05:25:51;;;;;;;7.38;4.03;;;9.70;95.50;;;;;;5032083;28;20385;-76
2022/04/20 05:28:17;;;;;;;7.63;3.95;;;9.90;95.30;;;;;;5032075;28;20041;-76
2022/04/20 05:30:43;;;;;;;9.48;3.45;;;9.80;95.30;;;;;;5032116;28;20091;-76
2022/04/20 05:33:08;;;;;;;11.77;3.58;;;9.90;95.50;;;;;;5032091;28;20091;-76
2022/04/20 05:35:34;;;;;;;9.77;4.10;;;10.00;95.50;;;;;;5033031;28;20096;-76
2022/04/20 05:43:28;;;;;;;6.28;3.58;;;10.10;95.50;;;;;;5035731;28;20049;-76
2022/04/20 05:45:54;;;;;;;7.70;4.13;;;10.30;95.50;;;;;;5035576;28;20046;-75
2022/04/20 05:48:20;;;;;;;7.55;3.90;;;10.40;95.40;;;;;;5035222;28;20045;-76
2022/04/20 05:50:46;;;;;;;6.47;3.80;;;10.50;95.60;;;;;;5035126;28;20459;-76
2022/04/20 05:53:12;;;;;;;8.20;3.67;;;10.60;95.50;;;;;;5034847;28;20073;-76
2022/04/20 05:55:38;;;;;;;6.70;3.88;;;10.70;95.40;;;;;;5035017;28;20041;-76
2022/04/20 05:58:03;;;;;;;9.00;4.30;;;10.70;95.30;;;;;;5036033;28;20053;-76
2022/04/20 06:00:30;;;;;;;10.95;3.80;;;10.70;95.40;;;;;;5035266;28;20056;-76
2022/04/20 06:02:57;;;;;;;8.30;4.22;;;10.70;95.30;;;;;;5034925;28;20484;-76
2022/04/20 06:05:23;;;;;;;8.60;4.07;;;10.80;95.40;;;;;;5019023;28;20049;-76
2022/04/20 06:07:49;;;;;;;8.13;4.35;;;10.80;95.40;;;;;;5035168;28;20041;-76
2022/04/20 06:10:15;;;;;;;8.35;4.38;;;10.90;95.40;;;;;;5034995;28;20124;-76
2022/04/20 06:12:41;;;;;;;10.25;4.70;;;11.00;95.30;;;;;;5034969;28;20124;-76
2022/04/20 06:15:08;;;;;;;10.20;3.95;;;11.00;95.30;;;;;;5034262;28;20057;-77
2022/04/20 06:17:33;;;;;;;7.07;4.38;;;11.00;95.30;;;;;;5033474;28;20045;-77
2022/04/20 06:19:59;;;;;;;6.82;4.20;;;11.10;95.50;;;;;;5034592;28;20118;-76
2022/04/20 06:22:25;;;;;;;10.65;4.50;;;10.90;95.40;;;;;;5034756;28;20048;-76
2022/04/20 06:24:51;;;;;;;8.73;4.30;;;10.80;95.50;;;;;;5034844;28;20060;-76
2022/04/20 06:27:16;;;;;;;11.75;5.35;;;10.90;95.50;;;;;;5034831;28;20045;-76
2022/04/20 06:29:43;;;;;;;8.88;4.63;;;11.20;95.40;;;;;;5034815;28;20049;-77
2022/04/20 06:32:08;;;;;;;8.65;4.60;;;11.20;95.40;;;;;;5034747;28;20049;-76
2022/04/20 06:34:34;;;;;;;8.73;4.68;;;11.40;95.30;;;;;;5034713;28;20045;-78
2022/04/20 06:37:00;;;;;;;5.43;3.78;;;11.40;95.30;;;;;;5034287;28;20076;-76
2022/04/20 06:39:26;;;;;;;6.90;4.40;;;11.50;95.40;;;;;;5034370;28;20053;-78
2022/04/20 06:41:52;;;;;;;11.80;4.70;;;11.50;95.30;;;;;;5034461;28;20045;-69
2022/04/20 06:44:18;;;;;;;9.85;4.55;;;11.40;95.20;;;;;;5035285;28;20055;-70
2022/04/20 06:46:45;;;;;;;9.10;4.30;;;11.40;95.30;;;;;;5034331;28;20054;-70
2022/04/20 06:49:11;;;;;;;11.02;4.28;;;11.20;95.10;;;;;;5034736;28;20098;-69
2022/04/20 06:59:50;;;;;;;5.50;3.45;;;11.50;94.80;;;;;;5020259;28;20111;-70
2022/04/20 07:02:16;;;;;;;8.15;3.83;;;11.60;94.90;;;;;;5035082;28;20050;-71
2022/04/20 07:04:43;;;;;;;7.20;4.10;;;11.70;94.70;;;;;;5035300;28;20472;-70
2022/04/20 07:07:09;;;;;;;6.70;3.85;;;11.80;94.40;;;;;;5035048;28;20049;-70
2022/04/20 07:09:35;;;;;;;7.28;3.78;;;11.60;94.60;;;;;;5033997;28;20049;-71
2022/04/20 07:12:00;;;;;;;7.40;4.03;;;11.80;94.70;;;;;;5034914;28;20392;-70
2022/04/20 07:14:26;;;;;;;7.20;3.95;;;11.80;94.30;;;;;;5033559;28;20053;-70
2022/04/20 07:16:51;;;;;;;6.97;3.55;;;11.80;94.10;;;;;;5033496;28;20061;-71
2022/04/20 07:19:17;;;;;;;8.32;3.88;;;11.60;94.00;;;;;;5033889;28;20203;-71
2022/04/20 07:21:43;;;;;;;6.95;4.10;;;11.60;94.30;;;;;;5034856;28;20386;-70
2022/04/20 07:24:08;;;;;;;8.75;4.25;;;11.70;94.00;;;;;;5033670;28;20041;-71
2022/04/20 07:26:34;;;;;;;7.88;3.60;;;11.80;94.20;;;;;;5034537;28;20100;-70
2022/04/20 07:29:00;;;;;;;5.47;3.33;;;11.90;93.90;;;;;;5056789;28;20369;-73
2022/04/20 07:31:25;;;;;;;7.00;3.58;;;11.90;93.90;;;;;;5036740;28;20052;-70
2022/04/20 07:33:51;;;;;;;6.10;3.47;;;12.00;93.80;;;;;;5034547;28;20052;-72
2022/04/20 07:36:17;;;;;;;7.15;3.58;;;12.00;93.70;;;;;;5033647;28;20084;-72
2022/04/20 07:38:45;;;;;;;6.68;3.15;;;11.90;94.00;;;;;;5034455;28;20061;-72
2022/04/20 07:41:10;;;;;;;4.50;3.28;;;12.10;93.80;;;;;;5033362;28;20064;-72
2022/04/20 07:43:36;;;;;;;8.65;3.47;;;12.40;93.90;;;;;;5033402;28;20045;-72
2022/04/20 07:46:02;;;;;;;6.07;3.72;;;12.60;93.30;;;;;;5035321;28;20041;-72
2022/04/20 07:48:28;;;;;;;7.90;3.30;;;12.50;93.20;;;;;;5049261;28;20500;-72
2022/04/20 07:50:53;;;;;;;6.90;3.70;;;12.60;93.10;;;;;;5034243;28;20041;-72
2022/04/20 07:53:19;;;;;;;5.20;3.22;;;12.60;93.10;;;;;;5034142;28;20049;-76
2022/04/20 07:55:46;;;;;;;6.47;2.95;;;12.60;93.10;;;;;;5035005;28;20053;-73
2022/04/20 07:58:13;;;;;;;4.35;3.05;;;12.70;93.20;;;;;;5033918;28;20075;-73
2022/04/20 08:00:39;;;;;;;7.57;3.10;;;12.80;92.70;;;;;;5034096;28;20068;-70
2022/04/20 08:03:12;;;;;;;5.18;2.88;;;12.90;93.10;;;;;;5032770;28;20041;-71
2022/04/20 08:05:38;;;;;;;5.93;2.80;;;12.80;92.70;;;;;;5033930;28;20424;-71
2022/04/20 08:08:06;;;;;;;7.57;3.10;;;12.80;92.80;;;;;;5033068;28;20404;-71
2022/04/20 08:10:32;;;;;;;6.55;3.10;;;13.00;92.30;;;;;;5033589;28;20570;-71
2022/04/20 08:12:57;;;;;;;4.88;2.70;;;13.10;92.30;;;;;;5032991;28;20072;-71
2022/04/20 08:15:23;;;;;;;3.88;2.72;;;13.20;92.40;;;;;;5032409;28;20064;-71
2022/04/20 08:17:49;;;;;;;3.95;2.58;;;13.30;92.30;;;;;;5033506;28;20049;-71
2022/04/20 08:20:14;;;;;;;3.78;2.30;;;13.40;92.10;;;;;;5033775;28;20041;-71
2022/04/20 08:22:42;;;;;;;5.80;2.83;;;13.40;91.60;;;;;;5033690;28;20049;-70
2022/04/20 08:25:12;;;;;;;9.85;2.40;;;13.50;92.00;;;;;;5032813;28;20392;-79
2022/04/20 08:27:38;;;;;;;4.22;2.20;;;13.50;92.20;;;;;;5032861;28;20055;-71
2022/04/20 08:30:06;;;;;;;7.70;2.20;;;13.40;91.90;;;;;;5032596;28;20423;-71
2022/04/20 08:32:31;;;;;;;10.52;2.15;;;13.60;91.80;;;;;;5033651;28;20041;-71
2022/04/20 08:34:57;;;;;;;6.50;2.15;;;13.80;91.40;;;;;;5032700;28;20446;-71
2022/04/20 08:37:23;;;;;;;4.53;2.08;;;13.90;92.00;;;;;;5033763;28;20049;-70
2022/04/20 08:39:49;;;;;;;5.28;2.15;;;14.20;91.30;;;;;;5033589;28;20042;-70
2022/04/20 08:42:19;;;;;;;7.60;2.50;;;14.10;91.50;;;;;;5033445;28;20049;-71
2022/04/20 08:44:48;;;;;;;3.58;2.35;;;14.30;91.00;;;;;;5033803;28;20056;-80
2022/04/20 08:47:19;;;;;;;4.70;2.15;;;14.10;90.90;;;;;;5032197;28;20049;-80
2022/04/20 08:49:47;;;;;;;5.00;2.22;;;14.10;91.60;;;;;;5032687;28;20435;-80
2022/04/20 08:54:57;;;;;;;5.78;1.80;;;13.90;90.40;;;;;;5032505;28;20060;-70
2022/04/20 08:57:26;;;;;;;3.00;1.80;;;13.80;90.50;;;;;;5033516;28;20156;-71
2022/04/20 08:59:52;;;;;;;4.20;2.30;;;14.00;90.60;;;;;;5035118;28;20116;-70
2022/04/20 09:02:20;;;;;;;3.60;2.17;;;14.30;90.60;;;;;;5032179;28;20053;-70
2022/04/20 09:04:46;;;;;;;5.15;1.83;;;14.40;90.70;;;;;;5033352;28;20046;-70
2022/04/20 09:07:18;;;;;;;3.90;2.10;;;14.70;90.70;;;;;;5033347;28;20061;-70
2022/04/20 09:09:44;;;;;;;4.90;2.15;;;14.80;90.60;;;;;;5033381;28;20119;-70
2022/04/20 09:12:22;;;;;;;6.45;2.03;;;15.10;90.90;;;;;;5035893;28;20136;-72
2022/04/20 09:14:51;;;;;;;2.38;1.55;;;14.90;90.10;;;;;;5035617;28;20045;-73
2022/04/20 09:17:20;;;;;;;3.90;1.63;;;14.60;89.30;;;;;;5036779;28;20396;-73
2022/04/20 09:19:53;;;;;;;2.97;1.50;;;14.80;90.60;;;;;;5036039;28;20110;-73
2022/04/20 09:22:22;;;;;;;3.75;1.90;;;14.70;89.70;;;;;;5036014;28;20054;-72
2022/04/20 09:25:11;;;;;;;3.65;1.80;;;15.00;90.20;;;;;;5036958;28;20085;-73
2022/04/20 09:27:41;;;;;;;2.90;1.60;;;15.20;89.20;;;;;;5037089;28;20045;-72
2022/04/20 09:30:15;;;;;;;2.15;1.42;;;14.90;89.60;;;;;;5035777;28;20132;-73
2022/04/20 09:32:44;;;;;;;1.92;1.42;;;15.10;89.20;;;;;;5037039;28;20044;-73
2022/04/20 09:35:15;;;;;;;2.15;1.30;;;14.90;87.70;;;;;;5035750;28;20049;-73
2022/04/20 09:37:42;;;;;;;9.68;2.17;;;15.00;89.20;;;;;;5036181;28;20132;-74
2022/04/20 09:40:13;;;;;;;4.75;1.48;;;15.20;89.60;;;;;;5035770;28;20061;-73
2022/04/20 09:43:08;;;;;;;1.40;1.15;;;15.20;87.70;;;;;;5035507;28;20045;-76
2022/04/20 09:45:35;;;;;;;2.80;1.33;;;15.20;87.60;;;;;;5035620;28;20365;-77
2022/04/20 09:51:13;;;;;;;3.72;1.23;;;15.30;87.40;;;;;;5035528;28;20200;-76
2022/04/20 09:53:40;;;;;;;2.63;1.20;;;15.50;87.90;;;;;;5035613;28;20056;-77
2022/04/20 09:56:23;;;;;;;2.40;1.38;;;15.60;89.30;;;;;;5035452;28;20175;-77
2022/04/20 09:59:03;;;;;;;2.80;1.02;;;15.80;88.00;;;;;;5035361;28;20056;-81
2022/04/20 10:01:35;;;;;;;2.10;1.30;;;15.80;88.50;;;;;;5035289;28;20049;-80
2022/04/20 10:04:03;;;;;;;3.22;1.13;;;15.80;88.30;;;;;;5036851;28;20042;-81
2022/04/20 10:06:30;;;;;;;2.70;1.63;;;15.80;88.50;;;;;;5035256;28;20049;-82
2022/04/20 10:08:56;;;;;;;2.88;1.60;;;16.10;88.80;;;;;;5018877;28;20545;-82
2022/04/20 10:11:23;;;;;;;3.25;1.50;;;16.10;89.30;;;;;;5035257;28;20046;-81
2022/04/20 10:16:05;;;;;;;3.83;1.50;;;16.20;88.90;;;;;;5034929;28;20049;-82
2022/04/20 10:16:51;;;;;;;3.28;1.17;;;16.40;88.20;;;;;;5035061;28;20097;-83
2022/04/20 10:19:28;;;;;;;2.65;1.38;;;16.50;88.30;;;;;;5034717;28;20049;-83
2022/04/20 10:21:55;;;;;;;2.85;1.42;;;16.40;89.30;;;;;;5034614;28;20053;-83
2022/04/20 10:24:28;;;;;;;3.70;1.25;;;16.60;89.80;;;;;;5035089;28;20120;-83
2022/04/20 10:26:56;;;;;;;7.90;1.70;;;16.80;88.30;;;;;;5034582;28;20053;-81
2022/04/20 10:29:39;;;;;;;2.92;1.50;;;16.90;89.50;;;;;;5034778;28;20057;-74
2022/04/20 10:32:10;;;;;;;2.53;1.40;;;17.00;89.00;;;;;;5037678;28;20060;-74
2022/04/20 10:34:37;;;;;;;2.15;1.60;;;17.60;89.00;;;;;;5035399;28;20050;-74
2022/04/20 10:37:05;;;;;;;2.08;1.40;;;18.20;88.60;;;;;;5034717;28;20053;-72
2022/04/20 10:39:37;;;;;;;3.40;1.48;;;18.70;88.30;;;;;;5034608;28;20414;-74
2022/04/20 10:42:11;;;;;;;3.65;1.60;;;18.80;88.00;;;;;;5034522;28;20049;-75
2022/04/20 10:45:00;;;;;;;2.50;1.40;;;18.90;87.80;;;;;;5033947;28;20060;-75
2022/04/20 10:47:36;;;;;;;1.95;1.15;;;19.00;87.30;;;;;;5034213;28;20429;-75
2022/04/20 10:50:18;;;;;;;;;;;19.10;86.60;;;;;;5035018;28;20049;-75
2022/04/20 10:52:52;;;;;;;2.65;1.38;;;19.20;86.80;;;;;;5034363;28;20295;-70
2022/04/20 10:55:22;;;;;;;3.95;1.30;;;19.30;86.90;;;;;;5038843;28;20124;-71
2022/04/20 10:57:54;;;;;;;2.70;1.23;;;19.50;85.40;;;;;;5034114;28;20049;-73
2022/04/20 11:00:19;;;;;;;3.22;1.20;;;19.10;85.80;;;;;;5035020;28;20523;-71
2022/04/20 11:03:15;;;;;;;4.15;1.15;;;19.20;84.60;;;;;;5034902;28;20045;-71
2022/04/20 11:05:55;;;;;;;2.70;1.10;;;19.40;85.20;;;;;;5025223;28;20065;-70
2022/04/20 11:08:22;;;;;;;3.60;1.25;;;19.50;86.00;;;;;;5034954;28;20045;-74
2022/04/20 11:19:19;;;;;;;4.15;1.30;;;19.90;85.50;;;;;;5033498;28;20096;-78
2022/04/20 11:22:00;;;;;;;2.67;1.30;;;20.40;85.20;;;;;;5033641;28;20053;-77
2022/04/20 11:24:28;;;;;;;1.70;1.02;;;20.60;84.50;;;;;;5033111;28;20054;-80
2022/04/20 11:26:55;;;;;;;2.25;1.00;;;20.70;84.40;;;;;;5033358;28;20099;-77
2022/04/20 11:29:28;;;;;;;2.65;1.13;;;20.60;85.10;;;;;;5033657;28;20060;-77
2022/04/20 11:32:02;;;;;;;1.63;1.15;;;20.60;85.10;;;;;;5033654;28;20057;-77
2022/04/20 11:34:33;;;;;;;1.67;0.80;;;20.60;83.80;;;;;;5033051;28;20053;-77
2022/04/20 11:37:01;;;;;;;2.30;1.10;;;21.00;85.10;;;;;;5033674;28;20048;-77
2022/04/20 11:39:29;;;;;;;2.38;0.88;;;21.20;83.60;;;;;;5033171;28;20056;-78
2022/04/20 11:41:56;;;;;;;2.25;1.02;;;21.30;83.60;;;;;;5033267;28;20057;-77
2022/04/20 11:44:26;;;;;;;4.05;1.17;;;21.00;83.90;;;;;;5033334;28;20085;-77
2022/04/20 11:46:57;;;;;;;1.92;1.00;;;20.90;83.50;;;;;;5033081;28;20049;-77
2022/04/20 11:49:32;;;;;;;1.55;1.00;;;21.00;83.60;;;;;;5032975;28;20408;-77
2022/04/20 11:51:58;;;;;;;3.20;0.90;;;21.20;83.90;;;;;;5033021;28;20057;-77
2022/04/20 11:54:26;;;;;;;1.95;0.90;;;21.60;83.70;;;;;;5033234;28;20471;-77
2022/04/20 11:56:51;;;;;;;1.73;0.95;;;21.60;84.00;;;;;;5033127;28;20060;-77
2022/04/20 11:59:19;;;;;;;1.85;1.00;;;21.60;83.40;;;;;;5033102;28;20042;-77
2022/04/20 12:01:45;;;;;;;1.48;1.00;;;21.70;83.30;;;;;;5032886;28;20049;-77
2022/04/20 12:04:12;;;;;;;1.05;0.80;;;21.60;83.70;;;;;;5033216;28;20233;-77
2022/04/20 12:06:49;;;;;;;1.90;0.80;;;21.60;83.20;;;;;;5033048;28;20056;-77
2022/04/20 12:09:15;;;;;;;2.50;1.00;;;21.90;83.50;;;;;;5033054;28;20136;-77
2022/04/20 12:11:42;;;;;;;1.58;1.02;;;22.30;83.50;;;;;;5033199;28;20179;-77
2022/04/20 12:14:09;;;;;;;2.35;0.90;;;22.10;84.20;;;;;;5032713;28;20054;-77
2022/04/20 12:16:36;;;;;;;2.75;0.90;;;22.60;84.60;;;;;;5033954;28;20057;-77
2022/04/20 12:19:02;;;;;;;2.63;0.85;;;22.70;83.70;;;;;;5032539;28;20045;-77
2022/04/20 12:21:40;;;;;;;1.73;0.82;;;22.90;83.50;;;;;;5032750;28;20614;-77
2022/04/20 12:24:08;;;;;;;3.17;1.10;;;22.90;82.80;;;;;;5032764;28;20041;-77
2022/04/20 12:26:34;;;;;;;2.97;1.20;;;23.10;83.10;;;;;;5032672;28;20058;-77
2022/04/20 12:29:02;;;;;;;1.98;1.08;;;23.00;83.40;;;;;;5032975;28;20057;-77
2022/04/20 12:31:28;;;;;;;4.32;1.13;;;22.70;83.50;;;;;;5032802;28;20404;-77
2022/04/20 12:34:05;;;;;;;1.45;1.00;;;22.80;84.50;;;;;;5032708;28;20049;-77
2022/04/20 12:36:48;;;;;;;1.52;1.10;;;22.90;83.20;;;;;;5032809;28;20056;-77
2022/04/20 12:39:26;;;;;;;3.47;1.05;;;23.10;83.40;;;;;;5018524;28;20063;-78
2022/04/20 12:41:57;;;;;;;1.25;0.85;;;22.90;82.70;;;;;;5032234;28;20507;-77
2022/04/20 12:44:35;;;;;;;2.53;1.10;;;22.80;83.30;;;;;;5032531;28;20539;-77
2022/04/20 12:47:07;;;;;;;2.45;1.02;;;22.80;82.00;;;;;;5036454;28;20526;-77
2022/04/20 12:49:36;;;;;;;2.08;1.13;;;22.70;82.30;;;;;;5036713;28;20068;-77
2022/04/20 12:52:22;;;;;;;3.00;0.88;;;22.60;82.70;;;;;;5036634;28;20477;-77
2022/04/20 12:55:08;;;;;;;1.33;0.93;;;23.10;83.50;;;;;;5036593;28;20476;-77
2022/04/20 13:03:17;;;;;;;1.98;0.98;;;24.20;83.20;;;;;;5036129;28;20049;-78
2022/04/20 13:05:44;;;;;;;1.10;0.73;;;23.90;82.50;;;;;;5036661;28;20111;-77
2022/04/20 13:08:12;;;;;;;2.03;0.80;;;23.70;82.20;;;;;;5036156;28;20811;-77
2022/04/20 13:10:43;;;;;;;2.40;1.10;;;24.00;83.70;;;;;;5036262;28;20060;-80
2022/04/20 13:13:10;;;;;;;3.42;1.40;;;24.30;82.90;;;;;;5036191;28;20057;-86
2022/04/20 13:15:36;;;;;;;2.75;1.05;;;24.10;82.50;;;;;;5035523;28;20058;-81
2022/04/20 13:18:02;;;;;;;5.45;1.48;;;24.00;82.90;;;;;;5035849;28;20049;-78
2022/04/20 13:20:29;;;;;;;7.35;1.42;;;23.60;82.40;;;;;;5019594;28;20051;-77
2022/04/20 13:22:56;;;;;;;1.85;1.20;;;23.50;81.90;;;;;;5035680;28;20053;-76
2022/04/20 13:28:06;;;;;;;1.40;1.02;;;22.70;82.70;;;;;;5035900;28;20396;-74
2022/04/20 13:30:38;;;;;;;3.70;1.20;;;22.50;82.60;;;;;;5036935;28;20037;-74
2022/04/20 13:33:09;;;;;;;2.40;1.30;;;22.40;82.70;;;;;;5035871;28;20175;-75
2022/04/20 13:35:35;;;;;;;3.05;1.50;;;22.60;82.70;;;;;;5036924;28;20084;-76